Alamosa, Colorado
Current Conditions -  °F | °C
As of 11:52 AM on Thursday 23 Oct 2014 (Local Time) from KALS Reporting Station
Clear Clear  
Wind Chill: 58°   Ceiling: Unl
Heat Index: 58°   Visibility: 10mi
Dew Point: 30°   Wind: 3mph
Humidity: 35%   Direction: NA
Pressure: 30.36"   Gusts: NA
Location:  37.47°N, 105.87°W
Report Text: KALS 231752Z AUTO VRB03KT 10SM CLR 14/M01 A3036 RMK AO2 SLP232 T01441011 10144 21039 58001
Loading
Personal Weather Stations






























Interactive Weather Map
Tropical Storm Tracking
New forecast layout! Learn more

10-Day Weather Forecast

Advertisements
Track Severe Weather on mobile